createdAt,value
2022-12-05T00:03:27.661Z,3.06
2022-12-05T00:08:29.283Z,3.02
2022-12-05T00:13:30.839Z,3.05
2022-12-05T00:18:33.695Z,3.06
2022-12-05T00:23:35.253Z,3.09
2022-12-05T00:28:36.910Z,3.11
2022-12-05T00:33:39.370Z,3.10
2022-12-05T00:38:42.294Z,3.05
2022-12-05T00:43:44.759Z,2.98
2022-12-05T00:48:46.888Z,3.00
2022-12-05T00:53:49.533Z,2.98
2022-12-05T00:58:53.936Z,2.97
2022-12-05T01:03:57.785Z,3.00
2022-12-05T01:09:00.398Z,2.96
2022-12-05T01:14:02.007Z,2.96
2022-12-05T01:19:10.990Z,2.98
2022-12-05T01:24:12.596Z,2.97
2022-12-05T01:29:16.565Z,2.98
2022-12-05T01:34:19.125Z,2.98
2022-12-05T01:39:20.839Z,3.01
2022-12-05T01:44:22.384Z,3.04
2022-12-05T01:49:31.933Z,3.10
2022-12-05T01:54:36.628Z,3.10
2022-12-05T01:59:48.483Z,3.11
2022-12-05T02:05:03.451Z,3.07
2022-12-05T02:10:09.276Z,3.09
2022-12-05T02:15:30.608Z,3.12
2022-12-05T02:21:07.982Z,3.13
2022-12-05T02:26:34.155Z,3.10
2022-12-05T02:31:52.542Z,3.07
2022-12-05T02:37:12.120Z,3.08
2022-12-05T02:42:38.919Z,3.08
2022-12-05T02:47:45.795Z,3.07
2022-12-05T02:52:49.730Z,3.11
2022-12-05T02:57:56.780Z,3.10
2022-12-05T03:03:00.579Z,3.08
2022-12-05T03:08:04.430Z,3.04
2022-12-05T03:13:12.758Z,3.09
2022-12-05T03:18:14.244Z,3.20
2022-12-05T03:23:20.917Z,3.29
2022-12-05T03:28:35.237Z,3.31
2022-12-05T03:33:42.663Z,3.35
2022-12-05T03:39:08.087Z,3.37
2022-12-05T03:44:18.306Z,3.38
2022-12-05T03:49:34.354Z,3.29
2022-12-05T03:54:42.242Z,3.15
2022-12-05T03:59:53.650Z,3.12
2022-12-05T04:05:04.163Z,3.01
2022-12-05T04:10:20.452Z,2.88
2022-12-05T04:15:54.488Z,2.82
2022-12-05T04:21:17.290Z,2.84
2022-12-05T04:26:31.455Z,2.86
2022-12-05T04:31:41.348Z,2.92
2022-12-05T04:37:04.609Z,2.89
2022-12-05T04:42:12.203Z,2.98
2022-12-05T04:47:17.019Z,3.08
2022-12-05T04:52:19.130Z,3.17
2022-12-05T04:57:34.097Z,3.16
2022-12-05T05:03:15.115Z,3.17
2022-12-05T05:08:23.808Z,3.15
2022-12-05T05:13:25.477Z,3.15
2022-12-05T05:18:27.139Z,3.20
2022-12-05T05:23:28.722Z,3.25
2022-12-05T05:28:30.294Z,3.29
2022-12-05T05:33:33.084Z,3.31
2022-12-05T05:38:42.988Z,3.37
2022-12-05T05:43:45.911Z,3.32
2022-12-05T05:48:48.537Z,3.29
2022-12-05T05:53:50.084Z,3.34
2022-12-05T05:58:56.671Z,3.36
2022-12-05T06:03:59.201Z,3.47
2022-12-05T06:09:01.004Z,3.55
2022-12-05T06:14:02.804Z,3.61
2022-12-05T06:19:04.563Z,3.63
2022-12-05T06:24:06.616Z,3.60
2022-12-05T06:29:08.170Z,3.64
2022-12-05T06:34:09.751Z,3.66
2022-12-05T06:39:11.327Z,3.65
2022-12-05T06:44:12.892Z,3.58
2022-12-05T06:49:14.965Z,3.55
2022-12-05T06:54:16.591Z,3.57
2022-12-05T06:59:18.237Z,3.59
2022-12-05T07:04:24.496Z,3.67
2022-12-05T07:09:45.360Z,3.65
2022-12-05T07:14:49.315Z,3.67
2022-12-05T07:19:53.064Z,3.77
2022-12-05T07:24:54.674Z,3.82
2022-12-05T07:29:59.887Z,3.85
2022-12-05T07:35:01.805Z,3.89
2022-12-05T07:40:03.646Z,3.92
2022-12-05T07:45:05.827Z,3.93
2022-12-05T07:50:11.359Z,3.98
2022-12-05T07:55:12.945Z,3.95
2022-12-05T08:00:15.393Z,3.90
2022-12-05T08:05:17.094Z,3.89
2022-12-05T08:10:18.744Z,3.88
2022-12-05T08:15:20.365Z,3.92
2022-12-05T08:20:22.159Z,4.01
2022-12-05T08:25:23.936Z,4.16
2022-12-05T08:30:25.561Z,4.25
2022-12-05T08:35:27.218Z,4.28
2022-12-05T08:40:28.796Z,4.32
2022-12-05T08:45:30.515Z,4.31
2022-12-05T08:50:34.464Z,4.36
2022-12-05T08:55:36.653Z,4.51
2022-12-05T09:00:39.172Z,4.63
2022-12-05T09:05:41.259Z,4.62
2022-12-05T09:10:42.832Z,4.59
2022-12-05T09:15:44.621Z,4.66
2022-12-05T09:20:47.304Z,4.66
2022-12-05T09:25:58.086Z,4.62
2022-12-05T09:31:02.059Z,4.61
2022-12-05T09:36:09.329Z,4.67
2022-12-05T09:41:45.566Z,4.55
2022-12-05T09:47:04.456Z,4.51
2022-12-05T09:52:27.248Z,4.61
2022-12-05T09:57:39.735Z,4.76
2022-12-05T10:02:53.445Z,4.81
2022-12-05T10:08:18.000Z,4.78
2022-12-05T10:13:37.772Z,4.76
2022-12-05T10:18:54.175Z,4.77
2022-12-05T10:23:59.645Z,4.91
2022-12-05T10:29:19.081Z,5.15
2022-12-05T10:34:37.289Z,5.52
2022-12-05T10:39:39.088Z,5.83
2022-12-05T10:44:40.910Z,6.01
2022-12-05T10:49:42.894Z,6.11
2022-12-05T10:54:54.845Z,6.13
2022-12-05T10:59:57.562Z,6.23
2022-12-05T11:05:04.453Z,6.23
2022-12-05T11:10:26.322Z,6.19
2022-12-05T11:15:30.825Z,6.20
2022-12-05T11:20:35.259Z,6.40
2022-12-05T11:25:37.624Z,6.66
2022-12-05T11:30:39.260Z,7.03
2022-12-05T11:35:44.233Z,7.49
2022-12-05T11:40:59.531Z,7.86
2022-12-05T11:46:38.798Z,8.13
2022-12-05T11:51:48.018Z,8.16
2022-12-05T11:56:54.890Z,8.06
2022-12-05T12:02:21.318Z,7.84
2022-12-05T12:07:48.879Z,7.50
2022-12-05T12:13:01.430Z,7.20
2022-12-05T12:18:21.641Z,6.89
2022-12-05T12:23:30.812Z,6.85
2022-12-05T12:28:57.245Z,7.06
2022-12-05T12:34:29.615Z,7.30
2022-12-05T12:39:31.422Z,7.41
2022-12-05T12:45:10.733Z,7.60
2022-12-05T12:50:21.360Z,7.69
2022-12-05T12:55:50.952Z,7.47
2022-12-05T13:01:06.330Z,7.21
2022-12-05T13:06:21.557Z,7.08
2022-12-05T13:11:24.027Z,7.03
2022-12-05T13:16:33.794Z,6.98
2022-12-05T13:21:35.755Z,6.89
2022-12-05T13:26:48.438Z,6.81
2022-12-05T13:31:50.275Z,6.74
2022-12-05T13:37:10.622Z,6.78
2022-12-05T13:42:24.343Z,6.69
2022-12-05T13:47:35.152Z,6.63
2022-12-05T13:52:59.397Z,6.60
2022-12-05T13:58:03.860Z,6.62
2022-12-05T14:03:34.987Z,6.43
2022-12-05T14:08:39.495Z,6.37
2022-12-05T14:13:43.584Z,6.29
2022-12-05T14:19:03.087Z,6.11
2022-12-05T14:24:13.252Z,6.04
2022-12-05T14:29:41.141Z,5.93
2022-12-05T14:34:56.425Z,5.79
2022-12-05T14:40:00.922Z,5.68
2022-12-05T14:45:20.252Z,5.62
2022-12-05T14:50:34.809Z,5.54
2022-12-05T14:55:36.656Z,5.45
2022-12-05T15:00:38.373Z,5.35
2022-12-05T15:05:40.111Z,5.25
2022-12-05T15:10:43.480Z,5.25
2022-12-05T15:15:52.149Z,5.33
2022-12-05T15:21:08.986Z,5.38
2022-12-05T15:31:47.655Z,5.34
2022-12-05T15:37:04.175Z,5.34
2022-12-05T15:42:15.272Z,5.40
2022-12-05T15:47:26.054Z,5.42
2022-12-05T15:52:47.416Z,5.45
2022-12-05T15:57:57.872Z,5.47
2022-12-05T16:03:08.480Z,5.45
2022-12-05T16:08:10.269Z,5.52
2022-12-05T16:13:15.372Z,5.50
2022-12-05T16:18:27.758Z,5.48
2022-12-05T16:23:33.190Z,5.47
2022-12-05T16:28:34.815Z,5.47
2022-12-05T16:33:41.798Z,5.34
2022-12-05T16:38:46.860Z,5.31
2022-12-05T16:43:49.184Z,5.28
2022-12-05T16:49:28.366Z,5.17
2022-12-05T16:54:30.122Z,5.19
2022-12-05T16:59:39.332Z,5.12
2022-12-05T17:04:41.404Z,5.04
2022-12-05T17:09:42.990Z,4.97
2022-12-05T17:14:45.750Z,5.03
2022-12-05T17:19:47.982Z,5.03
2022-12-05T17:24:49.547Z,5.04
2022-12-05T17:29:51.084Z,5.02
2022-12-05T17:34:52.622Z,4.88
2022-12-05T17:39:54.175Z,4.86
2022-12-05T17:44:55.826Z,4.89
2022-12-05T17:49:57.832Z,4.84
2022-12-05T17:55:00.044Z,4.82
2022-12-05T18:00:02.028Z,4.80
2022-12-05T18:05:04.276Z,4.79
2022-12-05T18:10:12.698Z,4.75
2022-12-05T18:15:15.615Z,4.72
2022-12-05T18:20:17.393Z,4.70
2022-12-05T18:25:19.055Z,4.64
2022-12-05T18:30:20.601Z,4.54
2022-12-05T18:35:40.238Z,4.51
2022-12-05T18:40:41.810Z,4.48
2022-12-05T18:45:43.398Z,4.37
2022-12-05T18:50:44.964Z,4.34
2022-12-05T18:56:05.330Z,4.34
2022-12-05T19:01:11.581Z,4.30
2022-12-05T19:06:18.975Z,4.24
2022-12-05T19:11:20.700Z,4.09
2022-12-05T19:16:22.353Z,4.00
2022-12-05T19:21:25.263Z,3.81
2022-12-05T19:26:27.732Z,3.66
2022-12-05T19:31:30.250Z,3.43
2022-12-05T19:36:37.440Z,3.16
2022-12-05T19:41:39.088Z,3.01
2022-12-05T19:46:43.679Z,2.87
2022-12-05T19:51:45.936Z,2.83
2022-12-05T19:56:47.684Z,2.80
2022-12-05T20:01:49.243Z,2.83
2022-12-05T20:06:50.863Z,2.89
2022-12-05T20:11:55.596Z,2.91
2022-12-05T20:16:57.515Z,3.02
2022-12-05T20:21:59.159Z,3.05
2022-12-05T20:27:01.678Z,2.98
2022-12-05T20:32:03.398Z,2.73
2022-12-05T20:37:04.970Z,2.60
2022-12-05T20:42:06.668Z,2.62
2022-12-05T20:47:08.269Z,2.59
2022-12-05T20:52:09.839Z,2.57
2022-12-05T20:57:11.416Z,2.48
2022-12-05T21:02:12.989Z,2.43
2022-12-05T21:07:14.548Z,2.39
2022-12-05T21:12:16.084Z,2.34
2022-12-05T21:17:17.606Z,2.25
2022-12-05T21:22:19.143Z,2.21
2022-12-05T21:27:20.780Z,2.24
2022-12-05T21:32:22.348Z,2.24
2022-12-05T21:37:23.931Z,2.24
2022-12-05T21:42:25.537Z,2.24
2022-12-05T21:47:30.011Z,2.11
2022-12-05T21:52:39.276Z,1.96
2022-12-05T21:57:40.882Z,1.73
2022-12-05T22:02:42.495Z,1.53
2022-12-05T22:07:44.182Z,1.38
2022-12-05T22:12:46.920Z,1.30
2022-12-05T22:17:48.468Z,1.23
2022-12-05T22:22:50.399Z,1.11
2022-12-05T22:27:51.940Z,0.96
2022-12-05T22:32:53.801Z,0.86
2022-12-05T22:37:55.405Z,0.79
2022-12-05T22:42:56.979Z,0.72
2022-12-05T22:47:58.537Z,0.66
2022-12-05T22:53:00.254Z,0.61
2022-12-05T22:58:01.853Z,0.61
2022-12-05T23:03:03.975Z,0.53
2022-12-05T23:08:05.842Z,0.54
2022-12-05T23:13:07.980Z,0.63
2022-12-05T23:18:09.596Z,0.68
2022-12-05T23:23:11.196Z,0.80
2022-12-05T23:28:12.800Z,0.86
2022-12-05T23:33:14.387Z,1.00
2022-12-05T23:38:16.154Z,1.22
2022-12-05T23:43:18.272Z,1.43
2022-12-05T23:48:19.962Z,1.57
2022-12-05T23:53:21.547Z,1.67
2022-12-05T23:58:23.175Z,1.77
